Time;durP1;ratioP1;P1;durP2;ratioP2;P2;SDS_P1;SDS_P2;PMS_P1;PMS_P2;Temp;Humidity;BMP_temperature;BMP_pressure;BME280_temperature;BME280_humidity;BME280_pressure;Samples;Min_cycle;Max_cycle;Signal;HPM_P1;HPM_P2
2021/08/14 00:00:38;;;;;;;6.62;4.37;;;;;;;18.75;64.59;101320.16;1789721;80;21353;-77
2021/08/14 00:03:04;;;;;;;8.83;4.05;;;;;;;18.71;64.13;101317.40;1789864;79;20921;-77
2021/08/14 00:05:31;;;;;;;6.95;4.15;;;;;;;18.70;63.86;101313.91;1789527;79;21520;-78
2021/08/14 00:07:59;;;;;;;6.47;3.85;;;;;;;18.71;64.05;101315.58;1789375;80;20967;-78
2021/08/14 00:10:26;;;;;;;5.78;4.83;;;;;;;18.71;64.03;101317.40;1783590;80;20948;-79
2021/08/14 00:12:53;;;;;;;5.42;3.65;;;;;;;18.71;64.04;101312.92;1775886;80;20909;-78
2021/08/14 00:15:21;;;;;;;5.20;3.67;;;;;;;18.71;64.50;101322.71;1775977;80;20880;-77
2021/08/14 00:17:49;;;;;;;8.05;4.35;;;;;;;18.69;64.38;101324.66;1776095;80;21085;-77
2021/08/14 00:20:17;;;;;;;5.10;3.45;;;;;;;18.66;63.88;101323.09;1776006;80;20854;-78
2021/08/14 00:22:46;;;;;;;5.92;3.50;;;;;;;18.61;63.58;101323.97;1775639;80;21997;-78
2021/08/14 00:25:13;;;;;;;6.28;3.92;;;;;;;18.58;63.63;101323.72;1775791;80;20960;-78
2021/08/14 00:27:39;;;;;;;5.78;4.28;;;;;;;18.56;63.26;101327.47;1776310;80;20849;-77
2021/08/14 00:30:07;;;;;;;4.87;3.85;;;;;;;18.54;63.49;101322.77;1775637;80;21348;-77
2021/08/14 00:32:33;;;;;;;5.35;4.25;;;;;;;18.54;64.03;101321.44;1775858;80;20956;-78
2021/08/14 00:35:00;;;;;;;6.00;4.05;;;;;;;18.53;64.62;101331.72;1775666;80;20933;-78
2021/08/14 00:37:28;;;;;;;6.22;4.17;;;;;;;18.50;64.70;101322.20;1775281;80;20937;-78
2021/08/14 00:39:56;;;;;;;9.30;4.33;;;;;;;18.48;65.09;101328.12;1775368;80;20983;-78
2021/08/14 00:42:23;;;;;;;6.97;4.87;;;;;;;18.45;65.22;101325.70;1775643;80;21115;-78
2021/08/14 00:44:50;;;;;;;6.00;4.75;;;;;;;18.42;65.34;101322.81;1776578;80;20849;-78
2021/08/14 00:47:19;;;;;;;6.25;5.17;;;;;;;18.41;65.57;101319.81;1777320;80;20909;-78
2021/08/14 00:49:47;;;;;;;9.75;5.45;;;;;;;18.40;65.70;101322.58;1754152;80;20952;-78
2021/08/14 00:52:14;;;;;;;7.33;4.95;;;;;;;18.37;65.84;101322.36;1775564;80;21312;-77
2021/08/14 00:54:41;;;;;;;8.50;5.55;;;;;;;18.34;66.07;101320.42;1775445;80;21987;-79
2021/08/14 00:57:08;;;;;;;6.97;5.05;;;;;;;18.30;66.32;101329.14;1775308;80;20880;-78
2021/08/14 00:59:36;;;;;;;10.23;5.87;;;;;;;18.27;66.45;101327.20;1775326;80;21513;-78
2021/08/14 01:02:08;;;;;;;8.88;5.75;;;;;;;18.23;66.17;101331.94;1775424;80;21461;-78
2021/08/14 01:04:35;;;;;;;7.67;5.45;;;;;;;18.19;66.16;101333.98;1775018;80;20940;-78
2021/08/14 01:07:02;;;;;;;6.40;4.92;;;;;;;18.15;66.15;101337.86;1775415;80;21132;-78
2021/08/14 01:09:29;;;;;;;8.93;5.25;;;;;;;18.13;66.41;101344.26;1775206;80;20877;-78
2021/08/14 01:12:01;;;;;;;9.88;5.85;;;;;;;18.10;66.52;101337.88;1782078;80;20880;-78
2021/08/14 01:14:31;;;;;;;7.40;5.03;;;;;;;18.06;66.79;101335.11;1783895;80;21431;-78
2021/08/14 01:17:00;;;;;;;8.05;5.05;;;;;;;18.03;66.94;101340.19;1783914;80;20845;-77
2021/08/14 01:19:28;;;;;;;7.45;5.12;;;;;;;17.98;67.03;101332.56;1783999;80;21914;-78
2021/08/14 01:21:56;;;;;;;8.03;5.70;;;;;;;17.94;67.19;101327.63;1783821;80;20927;-78
2021/08/14 01:24:24;;;;;;;8.23;5.78;;;;;;;17.91;67.51;101328.72;1783942;80;20897;-79
2021/08/14 01:26:52;;;;;;;7.92;5.20;;;;;;;17.88;67.90;101334.77;1783941;80;21035;-78
2021/08/14 01:29:19;;;;;;;6.28;5.03;;;;;;;17.85;68.01;101334.50;1783845;80;21386;-79
2021/08/14 01:31:47;;;;;;;6.15;4.90;;;;;;;17.82;68.22;101336.09;1784185;79;21156;-79
2021/08/14 01:34:16;;;;;;;5.35;4.67;;;;;;;17.79;68.60;101337.63;1783835;80;21435;-79
2021/08/14 01:36:50;;;;;;;8.98;5.20;;;;;;;17.76;68.83;101336.08;1756393;80;20972;-79
2021/08/14 01:39:18;;;;;;;7.30;4.37;;;;;;;17.73;69.06;101334.13;1783966;80;28637;-79
2021/08/14 01:42:00;;;;;;;6.30;4.40;;;;;;;17.69;69.14;101326.05;1784008;80;21587;-79
2021/08/14 01:44:28;;;;;;;6.15;4.33;;;;;;;17.67;69.35;101326.16;1783837;79;21166;-78
2021/08/14 01:46:55;;;;;;;6.80;5.00;;;;;;;17.66;69.53;101332.45;1783782;80;20896;-79
2021/08/14 01:49:22;;;;;;;6.12;4.67;;;;;;;17.66;69.60;101327.63;1783808;80;21011;-78
2021/08/14 01:51:50;;;;;;;6.25;4.83;;;;;;;17.65;69.48;101327.25;1783838;80;20864;-78
2021/08/14 01:54:16;;;;;;;5.95;4.40;;;;;;;17.63;69.64;101324.73;1784017;79;20924;-77
2021/08/14 01:56:43;;;;;;;8.40;4.25;;;;;;;17.62;69.65;101320.38;1783909;80;22171;-79
2021/08/14 01:59:11;;;;;;;6.25;5.03;;;;;;;17.59;69.71;101315.33;1783895;79;20927;-80
2021/08/14 02:01:39;;;;;;;5.78;5.17;;;;;;;17.58;69.63;101312.30;1783867;80;20881;-78
2021/08/14 02:04:06;;;;;;;9.20;4.50;;;;;;;17.58;69.80;101308.32;1783817;79;20944;-80
2021/08/14 02:06:33;;;;;;;6.28;5.62;;;;;;;17.58;70.19;101310.97;1783904;80;20960;-80
2021/08/14 02:09:01;;;;;;;9.13;4.90;;;;;;;17.57;70.09;101314.11;1783738;79;21152;-78
2021/08/14 02:11:37;;;;;;;5.62;4.80;;;;;;;17.58;69.99;101316.27;1782114;80;20928;-78
2021/08/14 02:14:05;;;;;;;10.20;6.15;;;;;;;17.54;70.14;101314.37;1781069;80;20975;-78
2021/08/14 02:16:33;;;;;;;9.00;8.00;;;;;;;17.52;70.28;101315.42;1781592;80;21014;-79
2021/08/14 02:19:02;;;;;;;8.25;5.28;;;;;;;17.50;70.22;101320.88;1782222;80;20928;-80
2021/08/14 02:21:29;;;;;;;6.87;5.35;;;;;;;17.47;70.18;101324.23;1783274;80;21137;-79
2021/08/14 02:23:58;;;;;;;6.90;5.60;;;;;;;17.40;70.43;101319.88;1781012;80;20895;-79
2021/08/14 02:26:25;;;;;;;8.65;6.65;;;;;;;17.34;70.77;101326.52;1781266;80;20889;-78
2021/08/14 02:28:52;;;;;;;7.83;5.42;;;;;;;17.28;70.41;101329.64;1780964;80;21409;-79
2021/08/14 02:31:21;;;;;;;7.22;5.22;;;;;;;17.22;70.39;101335.41;1781168;80;20893;-79
2021/08/14 02:33:48;;;;;;;8.60;5.55;;;;;;;17.16;70.09;101329.24;1781236;80;21165;-78
2021/08/14 02:36:16;;;;;;;11.20;5.62;;;;;;;17.09;70.31;101331.52;1780984;80;21358;-79
2021/08/14 02:38:43;;;;;;;9.88;5.90;;;;;;;17.04;70.68;101333.68;1781000;80;20888;-78
2021/08/14 02:41:10;;;;;;;10.45;6.03;;;;;;;17.02;70.90;101336.09;1780941;80;20924;-78
2021/08/14 02:43:37;;;;;;;8.88;5.92;;;;;;;16.98;71.05;101340.77;1781096;80;20885;-79
2021/08/14 02:46:05;;;;;;;7.67;5.60;;;;;;;16.94;71.05;101341.49;1781047;80;21194;-78
2021/08/14 02:48:32;;;;;;;7.15;5.42;;;;;;;16.89;71.30;101340.14;1781133;80;20909;-78
2021/08/14 02:51:00;;;;;;;7.47;4.97;;;;;;;16.86;71.43;101336.41;1781024;80;20856;-80
2021/08/14 02:53:27;;;;;;;10.30;5.50;;;;;;;16.83;71.44;101330.86;1781073;80;20908;-79
2021/08/14 02:55:54;;;;;;;13.90;5.65;;;;;;;16.79;71.34;101333.34;1781217;80;21473;-77
2021/08/14 02:58:23;;;;;;;10.05;5.70;;;;;;;16.77;71.52;101325.98;1781047;80;21007;-79
2021/08/14 03:00:50;;;;;;;6.10;5.42;;;;;;;16.72;71.73;101317.06;1781066;80;20880;-78
2021/08/14 03:03:17;;;;;;;8.70;4.97;;;;;;;16.75;72.06;101319.95;1781197;80;20932;-79
2021/08/14 03:05:44;;;;;;;10.05;5.05;;;;;;;16.72;72.19;101323.68;1781162;80;20951;-79
2021/08/14 03:08:12;;;;;;;8.88;5.12;;;;;;;16.72;72.35;101325.00;1781274;80;20877;-80
2021/08/14 03:10:40;;;;;;;11.28;5.95;;;;;;;16.70;72.46;101325.59;1781091;80;21146;-79
2021/08/14 03:13:08;;;;;;;11.30;4.80;;;;;;;16.70;72.52;101330.05;1783706;79;20880;-79
2021/08/14 03:15:36;;;;;;;6.70;4.58;;;;;;;16.70;72.61;101332.22;1784216;80;20909;-80
2021/08/14 03:18:04;;;;;;;7.67;4.75;;;;;;;16.73;72.78;101321.87;1783853;79;20939;-79
2021/08/14 03:20:33;;;;;;;7.72;4.75;;;;;;;16.73;72.78;101321.87;1783807;80;20931;-80
2021/08/14 03:23:01;;;;;;;7.53;4.47;;;;;;;16.77;72.56;101325.98;1783811;80;20861;-80
2021/08/14 03:25:30;;;;;;;7.28;4.12;;;;;;;16.77;72.56;101325.98;1783658;80;20881;-79
2021/08/14 03:27:57;;;;;;;6.25;3.98;;;;;;;16.78;72.69;101329.85;1783975;79;21494;-79
2021/08/14 03:30:24;;;;;;;5.28;4.72;;;;;;;16.84;72.58;101331.70;1784062;79;21019;-79
2021/08/14 03:32:53;;;;;;;5.60;4.28;;;;;;;16.86;72.34;101331.94;1783897;80;20888;-78
2021/08/14 03:35:20;;;;;;;5.22;3.90;;;;;;;16.90;72.21;101332.08;1783724;80;21155;-80
2021/08/14 03:37:46;;;;;;;6.35;4.78;;;;;;;16.92;72.15;101331.98;1784138;79;20936;-79
2021/08/14 03:40:14;;;;;;;7.97;4.28;;;;;;;16.94;72.21;101335.33;1783806;80;21517;-80
2021/08/14 03:42:43;;;;;;;7.72;4.15;;;;;;;16.95;72.29;101338.36;1783776;79;20951;-80
2021/08/14 03:45:10;;;;;;;8.35;4.55;;;;;;;16.95;72.36;101341.84;1784045;79;21385;-80
2021/08/14 03:47:38;;;;;;;6.40;5.03;;;;;;;16.96;72.32;101340.03;1783813;79;20885;-79
2021/08/14 03:50:07;;;;;;;5.90;4.17;;;;;;;16.98;72.31;101343.41;1783722;79;21401;-79
2021/08/14 03:52:35;;;;;;;8.00;4.17;;;;;;;16.99;72.33;101347.77;1784247;80;20987;-80
2021/08/14 03:55:06;;;;;;;9.90;4.37;;;;;;;17.01;72.36;101344.52;1783743;79;20999;-78
2021/08/14 03:57:34;;;;;;;6.03;4.67;;;;;;;17.04;72.40;101351.39;1783995;80;20920;-80
2021/08/14 04:00:01;;;;;;;4.83;3.87;;;;;;;17.02;72.79;101354.15;1783870;79;21141;-79
2021/08/14 04:02:29;;;;;;;8.30;4.30;;;;;;;17.05;72.47;101361.02;1783902;79;20881;-79
2021/08/14 04:04:57;;;;;;;4.53;3.92;;;;;;;17.06;72.46;101366.21;1784037;80;20947;-79
2021/08/14 04:07:25;;;;;;;6.70;4.25;;;;;;;17.07;72.40;101361.27;1783852;80;20964;-78
2021/08/14 04:09:52;;;;;;;8.73;5.45;;;;;;;17.07;72.40;101361.75;1784031;79;20880;-78
2021/08/14 04:12:19;;;;;;;7.53;4.80;;;;;;;17.10;72.04;101366.84;1778651;80;21513;-78
2021/08/14 04:14:46;;;;;;;4.85;4.12;;;;;;;17.09;72.00;101364.64;1775528;80;21477;-77
2021/08/14 04:17:14;;;;;;;6.05;4.62;;;;;;;17.12;72.06;101364.43;1775370;80;20962;-78
2021/08/14 04:19:41;;;;;;;6.45;4.65;;;;;;;17.16;72.01;101367.67;1775452;80;20933;-77
2021/08/14 04:22:10;;;;;;;5.85;4.20;;;;;;;17.20;71.81;101365.16;1775501;80;21383;-78
2021/08/14 04:24:38;;;;;;;6.40;4.15;;;;;;;17.24;71.68;101370.59;1775398;80;22065;-78
2021/08/14 04:27:05;;;;;;;7.95;4.40;;;;;;;17.26;71.49;101369.16;1775586;80;20921;-78
2021/08/14 04:29:34;;;;;;;4.50;3.90;;;;;;;17.27;71.62;101373.00;1775369;80;20968;-78
2021/08/14 04:32:01;;;;;;;12.78;5.12;;;;;;;17.29;71.75;101377.71;1775290;80;20944;-79
2021/08/14 04:34:28;;;;;;;8.18;5.00;;;;;;;17.31;71.72;101377.11;1775673;80;20900;-78
2021/08/14 04:36:55;;;;;;;15.48;5.33;;;;;;;17.35;71.66;101382.55;1775311;80;21163;-79
2021/08/14 04:39:22;;;;;;;7.00;5.30;;;;;;;17.38;71.60;101378.33;1775358;80;20918;-79
2021/08/14 04:41:49;;;;;;;6.37;4.60;;;;;;;17.44;71.52;101382.33;1775580;80;20952;-78
2021/08/14 04:44:16;;;;;;;11.73;4.37;;;;;;;17.48;71.27;101378.48;1775670;80;20968;-79
2021/08/14 04:46:42;;;;;;;8.48;4.90;;;;;;;17.52;71.30;101388.36;1775804;80;20916;-79
2021/08/14 04:49:09;;;;;;;15.50;4.87;;;;;;;17.56;71.04;101395.12;1775434;80;21141;-79
2021/08/14 04:51:38;;;;;;;14.85;4.92;;;;;;;17.60;71.06;101400.55;1775459;80;21311;-79
2021/08/14 04:54:04;;;;;;;6.12;4.55;;;;;;;17.64;71.05;101404.66;1775725;80;20971;-79
2021/08/14 04:56:31;;;;;;;7.05;4.60;;;;;;;17.69;71.03;101405.63;1775486;80;20997;-78
2021/08/14 04:58:59;;;;;;;8.03;5.03;;;;;;;17.76;71.05;101410.81;1775429;80;21350;-80
2021/08/14 05:01:27;;;;;;;12.18;4.92;;;;;;;17.84;70.90;101409.78;1775343;80;21920;-79
2021/08/14 05:03:54;;;;;;;8.63;5.03;;;;;;;17.93;70.57;101406.89;1775093;80;20960;-79
2021/08/14 05:06:21;;;;;;;5.53;4.95;;;;;;;18.04;70.47;101405.56;1775590;80;20881;-81
2021/08/14 05:08:48;;;;;;;8.40;4.53;;;;;;;18.17;70.33;101401.45;1775810;80;20869;-80
2021/08/14 05:11:16;;;;;;;6.35;4.62;;;;;;;18.30;69.69;101398.67;1775311;80;20925;-81
2021/08/14 05:13:43;;;;;;;8.28;4.42;;;;;;;18.42;69.50;101397.17;1775414;80;21087;-80
2021/08/14 05:16:10;;;;;;;9.83;5.05;;;;;;;18.53;69.26;101391.48;1775346;80;20916;-78
2021/08/14 05:18:39;;;;;;;6.08;5.05;;;;;;;18.65;68.85;101394.45;1775281;80;21011;-80
2021/08/14 05:21:05;;;;;;;10.65;4.67;;;;;;;18.76;68.50;101398.41;1775303;80;20905;-78
2021/08/14 05:23:32;;;;;;;12.07;5.25;;;;;;;18.88;68.11;101405.91;1775608;80;20932;-81
2021/08/14 05:26:00;;;;;;;8.63;4.60;;;;;;;19.00;67.91;101410.19;1775256;80;21638;-80
2021/08/14 05:28:28;;;;;;;8.45;4.15;;;;;;;19.11;67.60;101407.97;1775372;80;20869;-79
2021/08/14 05:30:54;;;;;;;8.98;4.35;;;;;;;19.21;67.21;101412.89;1775428;80;20972;-79
2021/08/14 05:33:22;;;;;;;6.17;4.28;;;;;;;19.31;66.56;101408.12;1775330;80;21046;-80
2021/08/14 05:35:49;;;;;;;10.45;4.65;;;;;;;19.41;66.37;101413.86;1775386;80;21362;-80
2021/08/14 05:38:16;;;;;;;5.90;4.37;;;;;;;19.51;66.30;101409.09;1775546;80;22148;-79
2021/08/14 05:40:44;;;;;;;6.40;5.00;;;;;;;19.60;65.78;101408.30;1775176;80;21038;-79
2021/08/14 05:43:11;;;;;;;5.08;4.40;;;;;;;19.69;65.84;101407.53;1775239;80;20853;-78
2021/08/14 05:45:38;;;;;;;10.40;5.58;;;;;;;19.83;65.36;101422.30;1775237;80;20908;-78
2021/08/14 05:48:06;;;;;;;6.75;4.67;;;;;;;19.96;65.32;101420.76;1775250;80;21019;-78
2021/08/14 05:50:34;;;;;;;6.03;4.65;;;;;;;20.12;64.87;101425.12;1775678;80;21142;-80
2021/08/14 05:53:01;;;;;;;8.33;5.28;;;;;;;20.32;64.49;101424.70;1775298;80;20892;-79
2021/08/14 05:55:29;;;;;;;5.87;4.40;;;;;;;20.56;63.84;101420.80;1775276;80;21031;-78
2021/08/14 05:57:57;;;;;;;9.25;5.97;;;;;;;20.79;63.16;101420.12;1775339;80;21529;-79
2021/08/14 06:00:23;;;;;;;9.68;4.83;;;;;;;21.01;62.77;101422.97;1775649;80;21018;-78
2021/08/14 06:02:50;;;;;;;6.42;4.67;;;;;;;21.26;62.28;101416.24;1775263;80;21530;-78
2021/08/14 06:05:17;;;;;;;11.68;4.42;;;;;;;21.50;61.53;101410.48;1775547;80;21073;-80
2021/08/14 06:07:49;;;;;;;9.80;5.25;;;;;;;21.72;60.88;101418.61;1775463;80;20873;-79
2021/08/14 06:10:17;;;;;;;11.95;4.97;;;;;;;21.90;60.34;101414.21;1776956;80;20967;-80
2021/08/14 06:12:45;;;;;;;6.45;4.55;;;;;;;22.04;59.80;101416.89;1781677;80;20983;-80
2021/08/14 06:15:12;;;;;;;6.58;5.35;;;;;;;22.12;59.22;101415.67;1784079;80;21112;-81
2021/08/14 06:17:40;;;;;;;7.67;5.37;;;;;;;22.17;59.18;101413.05;1784132;80;20952;-79
2021/08/14 06:20:12;;;;;;;8.35;4.85;;;;;;;22.23;58.80;101413.33;1783810;80;20912;-78
2021/08/14 06:22:38;;;;;;;8.08;4.08;;;;;;;22.32;58.68;101408.89;1783744;79;20924;-79
2021/08/14 06:25:06;;;;;;;8.08;4.00;;;;;;;22.43;58.74;101407.84;1783827;79;20872;-78
2021/08/14 06:27:33;;;;;;;10.05;5.05;;;;;;;22.52;58.20;101404.27;1783759;80;21550;-78
2021/08/14 06:30:00;;;;;;;5.42;3.95;;;;;;;22.63;58.20;101402.71;1783794;79;21362;-80
2021/08/14 06:32:27;;;;;;;5.20;4.10;;;;;;;22.76;57.74;101405.02;1783962;80;20889;-77
2021/08/14 06:34:54;;;;;;;6.12;4.25;;;;;;;22.85;57.58;101400.08;1783913;80;21512;-78
2021/08/14 06:37:21;;;;;;;5.17;4.10;;;;;;;22.94;57.35;101402.34;1784081;80;20848;-80
2021/08/14 06:39:48;;;;;;;8.58;4.42;;;;;;;23.05;57.15;101407.48;1784386;80;21128;-80
2021/08/14 06:42:15;;;;;;;5.08;4.37;;;;;;;23.16;57.25;101401.05;1784116;80;20892;-78
2021/08/14 06:44:42;;;;;;;7.72;4.05;;;;;;;23.25;56.74;101398.77;1783873;79;20869;-79
2021/08/14 06:47:11;;;;;;;4.37;3.98;;;;;;;23.39;56.33;101405.42;1783789;79;20904;-78
2021/08/14 06:49:38;;;;;;;3.95;3.55;;;;;;;23.52;56.04;101404.98;1783832;80;20911;-78
2021/08/14 06:52:05;;;;;;;5.47;3.80;;;;;;;23.67;56.23;101399.89;1783934;79;21491;-79
2021/08/14 06:54:32;;;;;;;5.62;4.10;;;;;;;23.84;55.77;101394.16;1783727;79;20950;-78
2021/08/14 06:56:59;;;;;;;4.72;3.83;;;;;;;24.00;55.59;101400.92;1783768;79;20923;-78
2021/08/14 06:59:26;;;;;;;6.08;3.62;;;;;;;24.16;54.99;101404.16;1784427;79;20900;-78
2021/08/14 07:01:53;;;;;;;5.80;4.40;;;;;;;24.29;54.95;101401.03;1784639;79;21003;-79
2021/08/14 07:04:20;;;;;;;12.20;4.05;;;;;;;24.43;54.04;101402.23;1783812;79;21100;-80
2021/08/14 07:06:47;;;;;;;6.70;3.67;;;;;;;24.54;53.19;101392.57;1783856;79;20931;-78
2021/08/14 07:09:14;;;;;;;4.87;3.52;;;;;;;24.67;52.85;101392.09;1783602;79;20916;-80
2021/08/14 07:11:45;;;;;;;6.12;3.98;;;;;;;24.78;52.31;101395.28;1783787;80;20896;-79
2021/08/14 07:14:12;;;;;;;9.63;3.72;;;;;;;24.80;51.99;101401.33;1783891;79;20911;-79
2021/08/14 07:16:39;;;;;;;8.03;3.87;;;;;;;24.89;51.67;101393.30;1783896;79;21744;-78
2021/08/14 07:19:06;;;;;;;5.90;3.80;;;;;;;24.96;51.46;101399.15;1783761;80;20940;-79
2021/08/14 07:21:35;;;;;;;7.97;4.10;;;;;;;25.14;50.94;101401.66;1783987;79;20964;-80
2021/08/14 07:24:02;;;;;;;4.30;3.87;;;;;;;25.39;50.94;101394.47;1783980;80;21425;-78
2021/08/14 07:26:29;;;;;;;9.20;3.52;;;;;;;25.69;50.44;101395.23;1783884;79;20920;-80
2021/08/14 07:28:55;;;;;;;7.78;3.90;;;;;;;25.94;49.71;101396.02;1783938;80;21048;-79
2021/08/14 07:31:22;;;;;;;5.70;3.62;;;;;;;26.22;48.19;101389.17;1784067;79;20940;-80
2021/08/14 07:33:49;;;;;;;8.53;3.20;;;;;;;26.36;47.87;101389.43;1784377;80;20880;-80
2021/08/14 07:36:17;;;;;;;8.80;4.10;;;;;;;26.63;47.62;101384.06;1783965;79;20971;-79
2021/08/14 07:38:44;;;;;;;4.47;4.08;;;;;;;26.99;47.74;101376.72;1784280;79;20971;-82
2021/08/14 07:41:10;;;;;;;6.42;3.22;;;;;;;27.27;45.99;101379.70;1784196;80;21128;-82
2021/08/14 07:43:39;;;;;;;4.97;3.47;;;;;;;27.49;45.79;101377.44;1783840;80;20924;-79
2021/08/14 07:46:10;;;;;;;4.45;3.62;;;;;;;27.74;45.01;101376.33;1784075;79;20988;-79
2021/08/14 07:48:37;;;;;;;5.72;3.52;;;;;;;28.13;45.21;101367.12;1783903;80;20995;-78
2021/08/14 07:51:03;;;;;;;4.50;3.30;;;;;;;28.47;43.10;101370.00;1784025;79;21019;-79
2021/08/14 07:53:32;;;;;;;7.17;3.67;;;;;;;28.66;42.20;101368.54;1784252;79;21164;-78
2021/08/14 07:55:59;;;;;;;6.55;3.60;;;;;;;28.72;41.62;101368.27;1784359;80;20884;-78
2021/08/14 07:58:26;;;;;;;5.40;3.20;;;;;;;28.79;41.72;101368.32;1784197;79;20967;-78
2021/08/14 08:00:54;;;;;;;4.58;3.27;;;;;;;29.01;41.98;101370.48;1783911;80;20900;-77
2021/08/14 08:03:21;;;;;;;6.17;4.12;;;;;;;29.35;41.33;101364.34;1781578;79;20889;-79
2021/08/14 08:05:48;;;;;;;4.83;3.25;;;;;;;29.61;40.39;101364.16;1783690;79;22163;-78
2021/08/14 08:08:14;;;;;;;6.25;3.22;;;;;;;29.75;39.13;101360.54;1784218;80;20848;-80
2021/08/14 08:10:41;;;;;;;4.58;2.77;;;;;;;29.82;38.60;101360.57;1784026;80;20933;-80
2021/08/14 08:13:08;;;;;;;5.60;3.80;;;;;;;29.95;38.83;101366.86;1779939;79;21394;-80
2021/08/14 08:15:35;;;;;;;5.37;2.65;;;;;;;30.14;38.92;101361.72;1775346;80;20968;-81
2021/08/14 08:18:02;;;;;;;6.15;3.30;;;;;;;30.21;38.18;101359.03;1775581;80;21062;-83
2021/08/14 08:20:29;;;;;;;4.75;2.83;;;;;;;30.28;38.10;101354.49;1775358;80;20881;-80
2021/08/14 08:22:56;;;;;;;5.22;2.95;;;;;;;30.50;38.05;101359.22;1775644;80;20960;-80
2021/08/14 08:25:24;;;;;;;4.70;2.20;;;;;;;30.65;37.38;101343.62;1775313;80;20916;-81
2021/08/14 08:27:51;;;;;;;11.90;2.95;;;;;;;30.73;35.79;101343.42;1775639;80;20846;-83
2021/08/14 08:30:20;;;;;;;4.95;3.02;;;;;;;30.80;36.03;101343.42;1775410;80;21152;-81
2021/08/14 08:32:47;;;;;;;3.22;2.25;;;;;;;30.88;35.24;101337.84;1775647;80;20936;-86
2021/08/14 08:35:14;;;;;;;5.75;1.95;;;;;;;30.91;34.73;101340.12;1775217;80;20963;-81
2021/08/14 08:37:41;;;;;;;4.92;2.90;;;;;;;30.88;34.53;101335.63;1775482;80;20967;-80
2021/08/14 08:40:08;;;;;;;6.90;2.50;;;;;;;30.75;34.17;101323.74;1775635;80;21359;-77
2021/08/14 08:42:36;;;;;;;3.05;2.35;;;;;;;30.76;34.65;101324.04;1775276;80;21551;-76
2021/08/14 08:45:05;;;;;;;2.72;2.40;;;;;;;30.96;35.35;101324.06;1775148;80;21482;-82
2021/08/14 08:47:33;;;;;;;4.75;2.80;;;;;;;31.18;35.16;101323.83;1775427;80;20924;-81
2021/08/14 08:50:00;;;;;;;4.97;2.67;;;;;;;31.33;33.97;101319.53;1775352;80;21343;-80
2021/08/14 08:52:27;;;;;;;5.42;2.83;;;;;;;31.40;34.09;101321.70;1774969;80;20894;-77
2021/08/14 08:54:56;;;;;;;4.87;2.45;;;;;;;31.51;33.84;101320.23;1775170;80;22078;-78
2021/08/14 08:57:23;;;;;;;7.62;2.77;;;;;;;31.64;34.39;101320.69;1775152;80;20885;-77
2021/08/14 08:59:50;;;;;;;8.95;2.80;;;;;;;31.97;33.96;101323.28;1752665;80;20948;-77
2021/08/14 09:02:27;;;;;;;3.17;2.42;;;;;;;32.31;33.28;101312.55;1775666;80;21480;-77
2021/08/14 09:05:11;;;;;;;7.42;3.00;;;;;;;32.41;32.50;101316.12;1774481;80;21010;-77
2021/08/14 09:07:38;;;;;;;5.83;2.47;;;;;;;32.45;31.85;101313.81;1747343;82;21519;-77
2021/08/14 09:10:07;;;;;;;5.30;2.72;;;;;;;32.30;33.03;101305.97;1746746;81;21574;-78
2021/08/14 09:12:38;;;;;;;6.75;2.80;;;;;;;32.45;32.19;101301.59;1744244;81;21594;-76
2021/08/14 09:15:07;;;;;;;4.75;2.50;;;;;;;32.70;31.54;101302.97;1717089;81;20999;-76
2021/08/14 09:17:35;;;;;;;4.55;2.33;;;;;;;32.70;31.77;101299.72;1717491;83;21210;-77
2021/08/14 09:20:18;;;;;;;4.75;2.70;;;;;;;32.87;31.82;101302.71;1717558;81;21958;-76
2021/08/14 09:23:04;;;;;;;8.98;3.25;;;;;;;33.15;31.58;101304.13;1717444;81;20975;-76
2021/08/14 09:25:53;;;;;;;5.55;2.70;;;;;;;33.18;30.79;101296.36;1717732;81;20980;-75
2021/08/14 09:28:34;;;;;;;6.33;2.58;;;;;;;32.93;30.97;101289.59;1717446;83;20951;-76
2021/08/14 09:31:04;;;;;;;4.33;2.42;;;;;;;32.98;30.88;101289.74;1717330;82;21126;-80
2021/08/14 09:33:34;;;;;;;5.75;2.50;;;;;;;33.06;30.75;101291.36;1717428;82;21073;-81
2021/08/14 09:36:10;;;;;;;6.45;2.40;;;;;;;33.15;30.00;101281.02;1717513;81;20905;-79
2021/08/14 09:38:49;;;;;;;3.72;2.02;;;;;;;33.20;30.21;101282.55;1717352;83;21490;-80
2021/08/14 09:41:21;;;;;;;4.03;2.30;;;;;;;33.11;29.50;101278.48;1717669;83;21049;-78
2021/08/14 09:43:51;;;;;;;5.62;2.22;;;;;;;32.94;29.21;101284.98;1720445;81;21410;-77
2021/08/14 09:46:20;;;;;;;4.25;2.47;;;;;;;32.71;29.41;101272.88;1754924;79;21150;-78
2021/08/14 09:48:54;;;;;;;4.30;2.42;;;;;;;32.75;29.96;101270.52;1755023;79;20944;-79
2021/08/14 09:51:31;;;;;;;4.12;2.35;;;;;;;32.81;29.69;101282.69;1755506;80;21010;-80
2021/08/14 09:54:00;;;;;;;5.72;2.05;;;;;;;32.79;29.22;101282.11;1755019;79;20916;-76
2021/08/14 09:56:27;;;;;;;5.87;2.87;;;;;;;32.67;29.96;101267.58;1755153;79;20892;-75
2021/08/14 09:58:55;;;;;;;4.05;2.40;;;;;;;32.89;30.45;101273.44;1754835;79;21513;-76
2021/08/14 10:01:22;;;;;;;2.58;2.37;;;;;;;33.20;30.06;101274.40;1755159;79;20880;-74
2021/08/14 10:03:49;;;;;;;4.30;2.42;;;;;;;33.42;29.75;101282.39;1754927;81;20931;-76
2021/08/14 10:06:17;;;;;;;5.40;2.05;;;;;;;33.73;29.34;101272.41;1754908;80;20976;-75
2021/08/14 10:08:44;;;;;;;7.10;2.70;;;;;;;33.84;28.72;101270.26;1754917;79;21462;-76
2021/08/14 10:11:13;;;;;;;5.25;2.75;;;;;;;33.71;28.22;101265.54;1754840;79;20853;-75
2021/08/14 10:13:42;;;;;;;3.55;2.58;;;;;;;33.61;28.34;101260.09;1766991;80;20923;-76
2021/08/14 10:16:12;;;;;;;3.90;2.45;;;;;;;33.47;28.80;101257.77;1783688;79;20919;-75
2021/08/14 10:18:42;;;;;;;4.80;3.15;;;;;;;33.40;28.67;101261.92;1783891;80;20929;-75
2021/08/14 10:21:14;;;;;;;3.87;2.15;;;;;;;33.29;28.52;101255.89;1783770;80;20872;-76
2021/08/14 10:23:41;;;;;;;6.05;2.77;;;;;;;33.19;28.83;101257.77;1783701;80;21194;-76
2021/08/14 10:26:15;;;;;;;5.37;2.27;;;;;;;33.08;28.94;101259.88;1783782;80;21388;-75
2021/08/14 10:28:48;;;;;;;4.42;2.92;;;;;;;32.98;28.90;101248.16;1783747;79;20919;-78
2021/08/14 10:31:35;;;;;;;4.90;2.70;;;;;;;32.99;28.97;101245.19;1783816;79;20920;-74
2021/08/14 10:34:16;;;;;;;3.40;2.22;;;;;;;33.01;29.33;101247.16;1783985;79;20864;-77
2021/08/14 10:36:46;;;;;;;4.53;2.27;;;;;;;33.27;29.28;101245.23;1783845;80;21155;-78
2021/08/14 10:39:30;;;;;;;2.77;2.42;;;;;;;33.49;29.62;101237.97;1783681;79;20935;-80
2021/08/14 10:42:02;;;;;;;5.05;2.67;;;;;;;33.56;28.96;101237.34;1783982;80;20928;-78
2021/08/14 10:44:48;;;;;;;5.25;3.05;;;;;;;33.51;29.24;101237.21;1784117;80;20923;-77
2021/08/14 10:47:40;;;;;;;4.97;3.05;;;;;;;33.55;28.40;101233.80;1783703;80;21052;-77
2021/08/14 10:50:09;;;;;;;5.60;2.58;;;;;;;33.61;29.16;101232.06;1784255;79;21108;-79
2021/08/14 10:52:37;;;;;;;3.98;2.30;;;;;;;33.69;28.62;101229.03;1783620;80;21002;-79
2021/08/14 10:55:11;;;;;;;3.72;2.25;;;;;;;33.63;28.43;101229.41;1783820;80;20920;-78
2021/08/14 10:57:44;;;;;;;4.45;2.25;;;;;;;33.52;28.57;101229.34;1783867;80;20932;-76
2021/08/14 11:00:23;;;;;;;6.92;2.08;;;;;;;33.50;28.04;101227.38;1783685;79;20919;-78
2021/08/14 11:02:58;;;;;;;3.85;2.40;;;;;;;33.28;28.39;101225.13;1783939;80;21804;-76
2021/08/14 11:05:25;;;;;;;4.67;2.95;;;;;;;33.16;28.43;101212.84;1784137;80;21536;-78
2021/08/14 11:07:53;;;;;;;2.62;2.42;;;;;;;33.06;28.69;101217.15;1784030;80;20889;-77
2021/08/14 11:10:32;;;;;;;8.05;2.87;;;;;;;32.94;29.30;101212.98;1783905;80;21350;-77
2021/08/14 11:12:59;;;;;;;4.60;2.33;;;;;;;32.96;29.34;101213.58;1784153;80;21299;-76
2021/08/14 11:15:38;;;;;;;5.67;2.33;;;;;;;33.08;29.65;101210.42;1783915;80;20885;-77
2021/08/14 11:18:05;;;;;;;4.17;2.65;;;;;;;33.10;29.18;101214.28;1783694;80;21412;-77
2021/08/14 11:20:41;;;;;;;4.97;2.35;;;;;;;32.91;28.93;101211.55;1783622;80;21031;-80
2021/08/14 11:23:25;;;;;;;5.55;2.87;;;;;;;32.77;29.48;101210.87;1783809;79;20920;-76
2021/08/14 11:28:37;;;;;;;6.45;2.62;;;;;;;32.82;29.34;101206.11;1798842;79;22592;-76
2021/08/14 11:31:05;;;;;;;7.83;3.10;;;;;;;32.78;29.51;101209.80;1758364;80;20923;-78
2021/08/14 11:33:32;;;;;;;5.42;2.40;;;;;;;32.76;29.20;101209.19;1758071;81;21093;-77